Time;durP1;ratioP1;P1;durP2;ratioP2;P2;SDS_P1;SDS_P2;PMS_P1;PMS_P2;Temp;Humidity;BMP_temperature;BMP_pressure;BME280_temperature;BME280_humidity;BME280_pressure;Samples;Min_cycle;Max_cycle;Signal;HPM_P1;HPM_P2
2022/05/04 00:00:53;;;;;;;10.52;4.43;;;;;;;15.17;65.48;98028.34;4455069;32;20097;-76
2022/05/04 00:03:20;;;;;;;9.65;4.78;;;;;;;16.14;61.75;98026.50;4454702;32;20105;-76
2022/05/04 00:05:48;;;;;;;10.23;4.00;;;;;;;15.53;63.59;98027.84;4455023;32;20103;-76
2022/05/04 00:08:15;;;;;;;9.25;4.32;;;;;;;15.77;63.15;98028.06;4454923;32;20097;-76
2022/05/04 00:10:42;;;;;;;11.12;4.22;;;;;;;15.08;65.69;98027.16;4440717;32;20148;-76
2022/05/04 00:13:10;;;;;;;11.68;4.43;;;;;;;15.21;64.95;98035.88;4454861;32;20157;-76
2022/05/04 00:15:37;;;;;;;8.80;4.07;;;;;;;15.96;62.94;98031.16;4454376;32;20137;-76
2022/05/04 00:18:04;;;;;;;9.55;4.35;;;;;;;16.37;61.34;98033.63;4454821;32;20547;-76
2022/05/04 00:20:31;;;;;;;8.57;3.75;;;;;;;16.65;60.48;98029.19;4454827;32;20088;-76
2022/05/04 00:22:58;;;;;;;10.35;4.10;;;;;;;16.44;61.12;98036.69;4454591;32;20145;-76
2022/05/04 00:25:26;;;;;;;10.70;4.15;;;;;;;16.53;61.61;98023.03;4455788;32;20161;-76
2022/05/04 00:27:53;;;;;;;10.57;3.95;;;;;;;15.93;64.11;98025.31;4457145;32;20081;-77
2022/05/04 00:30:20;;;;;;;10.15;4.45;;;;;;;16.56;62.07;98032.41;4456664;32;20105;-77
2022/05/04 00:32:47;;;;;;;9.93;4.90;;;;;;;16.46;62.07;98024.38;4457093;32;20330;-77
2022/05/04 00:35:14;;;;;;;11.00;4.50;;;;;;;15.31;64.93;98026.59;4456609;32;20140;-77
2022/05/04 00:37:41;;;;;;;11.12;4.28;;;;;;;13.39;74.54;98019.63;4456559;32;20703;-76
2022/05/04 00:40:08;;;;;;;9.55;4.15;;;;;;;15.93;63.04;98027.91;4456808;32;20152;-76
2022/05/04 00:42:35;;;;;;;8.65;4.45;;;;;;;15.39;63.21;98033.06;4456987;32;20085;-76
2022/05/04 00:45:02;;;;;;;11.38;4.32;;;;;;;13.59;71.59;98036.69;4442682;32;20505;-77
2022/05/04 00:47:29;;;;;;;11.05;4.00;;;;;;;15.52;64.24;98031.34;4456822;32;20149;-76
2022/05/04 00:50:04;;;;;;;10.10;4.15;;;;;;;16.48;58.78;98028.56;4456855;32;20165;-76
2022/05/04 00:52:33;;;;;;;10.43;4.55;;;;;;;14.80;66.50;98027.16;4443388;32;20093;-76
2022/05/04 00:55:00;;;;;;;8.48;3.67;;;;;;;15.59;62.71;98025.66;4456603;32;20101;-77
2022/05/04 01:00:15;;;;;;;9.83;4.30;;;;;;;16.81;55.79;98029.03;4445123;32;20164;-76
2022/05/04 01:02:42;;;;;;;9.13;4.03;;;;;;;16.00;58.30;98029.19;4456841;32;20228;-76
2022/05/04 01:05:09;;;;;;;10.93;4.07;;;;;;;15.67;59.56;98034.78;4442342;32;20512;-76
2022/05/04 01:07:41;;;;;;;9.90;4.25;;;;;;;15.75;59.29;98030.78;4456830;32;20664;-77
2022/05/04 01:10:09;;;;;;;10.20;4.32;;;;;;;15.94;58.83;98042.59;4456928;32;20124;-76
2022/05/04 01:12:45;;;;;;;9.85;4.47;;;;;;;15.96;58.41;98045.94;4442472;32;20183;-77
2022/05/04 01:15:12;;;;;;;11.55;4.93;;;;;;;16.39;56.61;98046.56;4456689;32;20089;-77
2022/05/04 01:17:39;;;;;;;12.88;5.25;;;;;;;16.22;57.36;98045.06;4456563;32;20433;-77
2022/05/04 01:20:08;;;;;;;9.98;5.03;;;;;;;16.29;57.49;98045.53;4456307;32;20101;-77
2022/05/04 01:22:38;;;;;;;11.23;4.97;;;;;;;16.69;56.43;98041.09;4456740;32;20148;-76
2022/05/04 01:25:05;;;;;;;12.45;5.28;;;;;;;17.16;55.07;98043.06;4456527;32;20106;-76
2022/05/04 01:27:32;;;;;;;9.27;4.50;;;;;;;16.69;55.65;98048.91;4456177;32;20580;-76
2022/05/04 01:29:59;;;;;;;9.45;4.35;;;;;;;16.99;54.67;98043.38;4456466;32;20126;-76
2022/05/04 01:32:27;;;;;;;10.93;4.03;;;;;;;16.63;54.67;98042.34;4456640;32;20119;-76
2022/05/04 01:34:54;;;;;;;11.70;5.00;;;;;;;15.30;57.85;98040.47;4455916;32;20093;-76
2022/05/04 01:37:21;;;;;;;8.55;3.85;;;;;;;14.69;60.04;98040.78;4455285;32;20093;-76
2022/05/04 01:39:48;;;;;;;9.27;4.12;;;;;;;14.17;62.00;98044.63;4456183;32;20145;-76
2022/05/04 01:42:16;;;;;;;8.77;3.75;;;;;;;13.80;62.79;98042.44;4456511;32;20144;-76
2022/05/04 01:44:45;;;;;;;9.73;4.15;;;;;;;13.44;64.49;98046.12;4456391;32;20162;-76
2022/05/04 01:47:12;;;;;;;9.70;4.45;;;;;;;12.83;67.10;98038.97;4456050;32;20141;-76
2022/05/04 01:49:39;;;;;;;9.60;4.07;;;;;;;12.27;70.77;98039.28;4456435;32;20124;-76
2022/05/04 01:52:06;;;;;;;9.52;4.18;;;;;;;12.72;69.27;98036.94;4456534;32;20105;-76
2022/05/04 01:54:33;;;;;;;10.05;4.55;;;;;;;12.40;70.74;98037.75;4455789;32;20103;-76
2022/05/04 01:57:00;;;;;;;9.85;4.72;;;;;;;13.68;66.16;98038.75;4456336;32;20110;-76
2022/05/04 01:59:27;;;;;;;9.57;4.30;;;;;;;13.79;65.87;98045.94;4456352;32;20117;-76
2022/05/04 02:01:54;;;;;;;9.15;4.37;;;;;;;11.50;75.08;98055.03;4456125;32;20480;-76
2022/05/04 02:04:24;;;;;;;8.75;3.97;;;;;;;10.85;78.29;98053.66;4456429;32;20085;-76
2022/05/04 02:06:52;;;;;;;9.65;4.18;;;;;;;12.20;73.00;98059.44;4442668;32;20148;-76
2022/05/04 02:09:20;;;;;;;10.38;4.55;;;;;;;12.98;69.46;98060.69;4456074;32;20666;-76
2022/05/04 02:11:47;;;;;;;9.60;4.22;;;;;;;13.38;67.79;98048.22;4456441;32;20428;-76
2022/05/04 02:14:14;;;;;;;11.50;4.80;;;;;;;13.69;65.92;98052.56;4442329;32;20089;-76
2022/05/04 02:16:41;;;;;;;11.55;4.62;;;;;;;10.86;78.85;98038.09;4455887;32;20145;-76
2022/05/04 02:19:09;;;;;;;11.05;4.60;;;;;;;12.10;74.39;98038.34;4456142;32;20108;-76
2022/05/04 02:21:35;;;;;;;10.68;4.45;;;;;;;12.02;74.18;98039.66;4456347;32;20093;-76
2022/05/04 02:24:02;;;;;;;11.27;4.97;;;;;;;11.36;77.86;98032.38;4455790;32;20156;-76
2022/05/04 02:26:29;;;;;;;9.73;4.57;;;;;;;11.97;77.01;98045.03;4442313;32;20160;-76
2022/05/04 02:28:56;;;;;;;10.60;4.68;;;;;;;13.08;71.96;98042.87;4455843;32;20104;-76
2022/05/04 02:31:23;;;;;;;9.60;4.18;;;;;;;13.63;69.49;98053.75;4456176;32;20140;-76
2022/05/04 02:33:50;;;;;;;9.48;4.40;;;;;;;14.14;67.08;98051.72;4456081;32;20081;-76
2022/05/04 02:39:03;;;;;;;7.93;3.60;;;;;;;14.51;63.24;98058.28;4456125;32;20154;-76
2022/05/04 02:41:30;;;;;;;10.02;4.10;;;;;;;15.12;59.25;98046.00;4456143;32;20148;-76
2022/05/04 02:43:57;;;;;;;9.60;4.25;;;;;;;15.02;59.16;98043.97;4455665;32;20408;-76
2022/05/04 02:46:28;;;;;;;12.13;3.97;;;;;;;14.94;60.36;98051.38;4456236;32;20108;-76
2022/05/04 02:48:55;;;;;;;8.90;3.85;;;;;;;14.25;62.33;98040.75;4455631;32;20141;-76
2022/05/04 02:51:22;;;;;;;9.68;4.07;;;;;;;14.46;61.78;98053.38;4455598;32;20093;-76
2022/05/04 02:53:49;;;;;;;9.05;4.18;;;;;;;14.75;60.96;98051.63;4442027;32;20447;-76
2022/05/04 02:56:15;;;;;;;9.77;4.32;;;;;;;14.71;60.76;98057.13;4455986;32;20120;-76
2022/05/04 02:58:43;;;;;;;13.13;4.12;;;;;;;14.85;60.50;98053.69;4455642;32;20168;-76
2022/05/04 03:04:08;;;;;;;9.90;4.47;;;;;;;14.84;60.33;98059.81;4455732;32;20081;-76
2022/05/04 03:06:36;;;;;;;9.73;3.90;;;;;;;14.91;60.04;98055.94;4456059;32;20073;-76
2022/05/04 03:09:04;;;;;;;9.38;3.90;;;;;;;14.40;61.05;98068.41;4441752;32;20485;-76
2022/05/04 03:14:20;;;;;;;11.15;4.50;;;;;;;14.86;60.11;98060.56;4455733;32;20081;-76
2022/05/04 03:16:48;;;;;;;9.95;4.25;;;;;;;14.83;60.62;98071.13;4455823;32;20077;-76
2022/05/04 03:19:15;;;;;;;8.57;3.87;;;;;;;14.68;61.18;98071.13;4455510;32;20123;-77
2022/05/04 03:21:42;;;;;;;10.00;4.25;;;;;;;14.46;62.56;98068.09;4455752;32;20155;-76
2022/05/04 03:24:09;;;;;;;10.70;4.25;;;;;;;14.95;61.46;98068.62;4428937;32;20164;-76
2022/05/04 03:26:36;;;;;;;9.07;4.20;;;;;;;14.66;62.38;98067.75;4455557;32;20104;-76
2022/05/04 03:29:03;;;;;;;10.88;4.45;;;;;;;15.23;61.04;98073.00;4455522;32;20436;-76
2022/05/04 03:31:31;;;;;;;10.05;4.20;;;;;;;15.65;57.69;98066.09;4455538;32;20149;-76
2022/05/04 03:33:58;;;;;;;9.10;4.10;;;;;;;15.14;59.17;98073.56;4441233;32;20085;-76
2022/05/04 03:36:25;;;;;;;10.68;4.55;;;;;;;15.37;58.78;98063.50;4455160;32;20145;-77
2022/05/04 03:38:53;;;;;;;8.70;4.12;;;;;;;14.19;61.98;98063.53;4455466;32;20142;-77
2022/05/04 03:41:20;;;;;;;8.98;3.67;;;;;;;14.67;60.46;98068.59;4455094;32;20136;-76
2022/05/04 03:43:48;;;;;;;9.48;4.00;;;;;;;14.91;59.36;98071.53;4455408;32;20394;-76
2022/05/04 03:46:20;;;;;;;8.68;4.12;;;;;;;14.37;59.71;98064.25;4454827;32;20100;-76
2022/05/04 03:48:50;;;;;;;9.65;4.07;;;;;;;14.89;58.16;98063.81;4455355;32;20124;-76
2022/05/04 03:51:20;;;;;;;9.45;4.60;;;;;;;14.85;59.30;98064.06;4455406;32;20136;-76
2022/05/04 03:53:48;;;;;;;10.93;4.50;;;;;;;15.10;58.86;98068.62;4454941;32;20089;-76
2022/05/04 03:56:16;;;;;;;14.07;5.00;;;;;;;15.16;59.17;98069.09;4455046;32;20160;-76
2022/05/04 03:58:44;;;;;;;10.13;4.70;;;;;;;14.90;60.91;98072.44;4454984;32;20093;-76
2022/05/04 04:01:11;;;;;;;14.50;5.18;;;;;;;14.58;64.05;98072.59;4456524;32;20157;-76
2022/05/04 04:03:39;;;;;;;13.85;5.05;;;;;;;14.88;64.60;98075.13;4457275;32;20099;-76
2022/05/04 04:06:05;;;;;;;11.30;4.87;;;;;;;15.50;63.47;98080.03;4456993;32;20160;-76
2022/05/04 04:08:33;;;;;;;11.63;5.30;;;;;;;16.05;61.45;98080.00;4456808;32;20097;-76
2022/05/04 04:11:00;;;;;;;12.43;4.97;;;;;;;16.42;60.98;98078.44;4457358;32;20085;-76
2022/05/04 04:13:27;;;;;;;9.20;4.18;;;;;;;16.96;58.31;98074.88;4443201;32;20103;-76
2022/05/04 04:15:55;;;;;;;11.15;4.07;;;;;;;17.45;54.82;98080.16;4456623;32;20468;-77
2022/05/04 04:18:23;;;;;;;9.82;3.95;;;;;;;17.39;52.52;98077.97;4430546;32;20166;-76
2022/05/04 04:23:36;;;;;;;9.30;3.87;;;;;;;17.67;51.17;98083.88;4445254;32;20144;-77
2022/05/04 04:26:04;;;;;;;7.95;3.50;;;;;;;17.93;50.38;98083.69;4442881;32;20125;-77
2022/05/04 04:28:38;;;;;;;9.43;3.50;;;;;;;18.04;49.40;98082.91;4442749;32;20173;-77
2022/05/04 04:31:05;;;;;;;7.55;3.33;;;;;;;18.28;49.15;98082.06;4457131;32;20097;-77
2022/05/04 04:33:32;;;;;;;5.78;3.00;;;;;;;18.68;48.06;98096.50;4443083;32;20140;-77
2022/05/04 04:36:00;;;;;;;9.32;3.45;;;;;;;18.95;47.61;98083.13;4456179;32;20065;-77
2022/05/04 04:38:27;;;;;;;7.25;3.05;;;;;;;19.61;46.31;98091.12;4456902;32;20089;-77
2022/05/04 04:40:54;;;;;;;8.23;3.45;;;;;;;20.13;45.49;98092.22;4443000;32;20573;-77
2022/05/04 04:43:21;;;;;;;7.85;3.17;;;;;;;20.48;44.97;98105.09;4456580;32;20144;-77
2022/05/04 04:45:49;;;;;;;7.30;3.70;;;;;;;21.30;43.41;98100.78;4456720;32;20103;-77
2022/05/04 04:48:17;;;;;;;6.10;2.78;;;;;;;22.24;41.63;98109.25;4456856;32;20705;-77
2022/05/04 04:50:45;;;;;;;8.50;3.40;;;;;;;21.87;40.86;98114.25;4456604;32;20116;-77
2022/05/04 04:53:13;;;;;;;8.40;3.50;;;;;;;21.22;42.85;98107.62;4430269;32;20164;-77
2022/05/04 04:55:44;;;;;;;9.02;3.92;;;;;;;18.34;50.77;98111.19;4456643;32;20080;-77
2022/05/04 04:58:11;;;;;;;10.98;4.00;;;;;;;20.17;46.87;98110.16;4456344;32;20118;-77
2022/05/04 05:00:38;;;;;;;7.37;3.67;;;;;;;21.54;43.84;98107.53;4430195;32;20153;-77
2022/05/04 05:03:06;;;;;;;7.43;3.50;;;;;;;22.84;40.92;98122.25;4456827;32;20089;-77
2022/05/04 05:05:33;;;;;;;7.25;3.65;;;;;;;23.79;38.66;98120.28;4456488;32;20219;-77
2022/05/04 05:08:00;;;;;;;8.57;3.50;;;;;;;24.63;37.12;98120.03;4442766;32;20101;-77
2022/05/04 05:10:27;;;;;;;7.53;4.00;;;;;;;25.85;34.99;98120.00;4456314;32;20127;-77
2022/05/04 05:12:54;;;;;;;8.00;3.80;;;;;;;26.47;33.90;98125.75;4456733;32;20156;-77
2022/05/04 05:18:07;;;;;;;8.35;4.07;;;;;;;28.18;32.19;98120.94;4456441;32;20101;-77
2022/05/04 05:20:34;;;;;;;8.48;3.70;;;;;;;28.45;31.39;98130.25;4456694;32;20106;-77
2022/05/04 05:23:02;;;;;;;8.38;3.80;;;;;;;29.04;31.13;98121.66;4456704;32;20119;-77
2022/05/04 05:25:30;;;;;;;18.05;3.78;;;;;;;29.21;31.22;98122.31;4456193;32;20085;-78
2022/05/04 05:27:57;;;;;;;8.63;4.00;;;;;;;28.91;31.46;98127.56;4456584;32;20125;-78
2022/05/04 05:30:25;;;;;;;8.30;4.00;;;;;;;28.85;32.11;98127.44;4456449;32;20140;-78
2022/05/04 05:32:52;;;;;;;9.27;4.35;;;;;;;29.24;31.38;98125.44;4456251;32;20169;-78
2022/05/04 05:35:19;;;;;;;9.25;4.50;;;;;;;30.14;29.81;98124.41;4456082;32;20085;-78
2022/05/04 05:37:46;;;;;;;8.93;4.60;;;;;;;30.69;29.48;98131.75;4442426;32;20121;-78
2022/05/04 05:40:17;;;;;;;9.13;4.40;;;;;;;31.04;28.54;98135.31;4456188;32;20093;-78
2022/05/04 05:42:44;;;;;;;9.40;3.95;;;;;;;30.82;28.39;98136.38;4456613;32;20089;-78
2022/05/04 05:45:11;;;;;;;8.70;4.10;;;;;;;30.78;29.36;98138.59;4456233;32;20132;-78
2022/05/04 05:47:41;;;;;;;10.20;4.72;;;;;;;30.65;29.11;98135.00;4456197;32;20148;-78
2022/05/04 05:50:08;;;;;;;8.73;4.53;;;;;;;30.90;28.67;98138.91;4442792;32;20450;-78
2022/05/04 05:52:35;;;;;;;8.20;4.37;;;;;;;30.05;29.99;98131.66;4442187;32;20641;-78
2022/05/04 05:55:03;;;;;;;11.07;4.47;;;;;;;29.20;30.88;98133.94;4456166;32;20085;-78
2022/05/04 05:57:30;;;;;;;9.80;4.60;;;;;;;29.83;29.49;98128.13;4456458;32;20144;-78
2022/05/04 06:00:00;;;;;;;9.63;4.82;;;;;;;30.44;28.41;98138.44;4456312;32;20600;-78
2022/05/04 06:02:31;;;;;;;10.73;4.82;;;;;;;30.25;29.51;98131.91;4456012;32;20142;-78
2022/05/04 06:04:58;;;;;;;9.52;4.57;;;;;;;30.27;29.67;98137.03;4456456;32;20141;-78
2022/05/04 06:07:25;;;;;;;8.48;4.20;;;;;;;29.52;30.77;98135.47;4457370;32;20095;-80
2022/05/04 06:09:52;;;;;;;8.20;4.00;;;;;;;30.33;29.94;98139.78;4469791;32;20117;-81
2022/05/04 06:12:20;;;;;;;9.10;4.53;;;;;;;30.05;30.38;98136.13;4458024;32;20072;-81
2022/05/04 06:14:47;;;;;;;13.05;4.75;;;;;;;29.70;31.27;98132.44;4457233;32;20180;-84
2022/05/04 06:17:14;;;;;;;10.63;4.70;;;;;;;30.19;30.48;98141.44;4456233;32;20093;-83
2022/05/04 06:19:41;;;;;;;11.48;4.37;;;;;;;30.20;30.44;98137.81;4456938;32;20097;-81
2022/05/04 06:22:08;;;;;;;8.02;3.95;;;;;;;29.95;30.90;98147.06;4457267;32;20180;-81
2022/05/04 06:24:35;;;;;;;8.32;3.95;;;;;;;30.05;28.79;98146.78;4460879;32;20111;-80
2022/05/04 06:27:02;;;;;;;8.93;3.58;;;;;;;29.23;29.90;98144.22;4456391;32;20072;-80
2022/05/04 06:38:00;;;;;;;11.00;3.22;;;;;;;29.59;30.22;98155.00;4456441;32;20120;-85
2022/05/04 06:40:27;;;;;;;6.43;3.08;;;;;;;29.30;30.60;98151.28;4456389;32;20107;-85
2022/05/04 06:42:54;;;;;;;6.43;3.15;;;;;;;29.77;29.84;98157.28;4454584;32;20498;-85
2022/05/04 06:45:21;;;;;;;5.87;3.00;;;;;;;29.49;30.14;98149.97;4456367;32;20145;-86
2022/05/04 06:47:48;;;;;;;9.52;3.42;;;;;;;28.60;31.87;98148.87;4455040;32;20581;-85
2022/05/04 06:50:15;;;;;;;6.40;3.30;;;;;;;29.01;31.87;98149.41;4455995;32;20157;-86
2022/05/04 06:52:42;;;;;;;5.50;2.83;;;;;;;29.09;32.76;98153.81;4456075;32;20168;-85
2022/05/04 06:55:10;;;;;;;6.43;2.78;;;;;;;29.39;30.84;98142.22;4457891;32;20081;-84
2022/05/04 06:57:37;;;;;;;5.97;3.17;;;;;;;29.55;31.05;98149.22;4456015;32;20172;-85
2022/05/04 07:00:06;;;;;;;18.75;3.35;;;;;;;30.13;29.88;98152.84;4456040;32;20141;-86
2022/05/04 07:02:33;;;;;;;8.57;3.37;;;;;;;31.65;26.29;98150.72;4455575;32;20099;-86
2022/05/04 07:05:04;;;;;;;4.82;2.67;;;;;;;31.05;27.34;98149.44;4454601;32;20112;-85
2022/05/04 07:07:31;;;;;;;7.20;3.05;;;;;;;31.19;28.10;98150.41;4454900;32;20109;-85
2022/05/04 07:09:58;;;;;;;5.53;2.65;;;;;;;31.80;26.11;98150.63;4455550;32;20152;-86
2022/05/04 07:12:26;;;;;;;7.65;2.62;;;;;;;31.55;25.22;98152.91;4456267;32;20103;-85
2022/05/04 07:14:55;;;;;;;8.00;2.87;;;;;;;31.54;25.60;98162.75;4455715;32;20116;-85
2022/05/04 07:17:23;;;;;;;6.07;2.70;;;;;;;30.91;26.23;98153.03;4455330;32;20479;-85
2022/05/04 07:19:50;;;;;;;5.87;2.85;;;;;;;30.97;26.52;98154.94;4454515;32;20116;-85
2022/05/04 07:22:19;;;;;;;4.65;2.53;;;;;;;31.38;26.37;98147.09;4455784;32;20144;-85
2022/05/04 07:24:45;;;;;;;5.15;2.78;;;;;;;31.78;24.46;98148.13;4455572;32;20107;-85
2022/05/04 07:27:12;;;;;;;4.85;2.42;;;;;;;31.36;25.29;98154.44;4464404;32;20089;-82
2022/05/04 07:29:39;;;;;;;5.75;2.85;;;;;;;31.25;25.23;98152.31;4470145;32;20089;-81
2022/05/04 07:32:07;;;;;;;6.25;2.65;;;;;;;31.26;25.91;98152.12;4469669;32;20061;-81
2022/05/04 07:43:24;;;;;;;6.10;2.80;;;;;;;30.16;27.25;98149.81;4823169;26;20103;-81
2022/05/04 07:45:51;;;;;;;5.80;2.97;;;;;;;30.42;27.72;98132.50;4451950;32;20058;-81
2022/05/04 07:48:18;;;;;;;5.43;3.10;;;;;;;30.30;29.05;98152.62;4500742;26;21575;-81
2022/05/04 07:53:35;;;;;;;7.18;3.53;;;;;;;29.31;31.55;98160.06;4560408;26;20061;-82
2022/05/04 07:56:06;;;;;;;5.95;3.15;;;;;;;30.05;30.04;98158.25;4455425;32;20124;-81
2022/05/04 07:58:33;;;;;;;7.32;2.90;;;;;;;30.15;30.10;98156.16;4545898;26;20085;-81
2022/05/04 08:06:42;;;;;;;6.80;3.20;;;;;;;30.63;27.50;98169.78;4862131;26;20044;31
2022/05/04 08:09:09;;;;;;;6.22;3.03;;;;;;;30.00;28.07;98165.16;4447384;27;20189;-79
2022/05/04 08:11:36;;;;;;;8.20;2.90;;;;;;;29.80;27.68;98160.41;4526950;26;20088;-82
2022/05/04 08:14:03;;;;;;;5.55;2.80;;;;;;;30.36;28.01;98168.66;4454916;32;20058;-82
2022/05/04 08:16:30;;;;;;;6.50;2.70;;;;;;;30.61;27.62;98177.09;4454932;32;20782;-82
2022/05/04 08:18:59;;;;;;;4.72;2.65;;;;;;;31.00;27.19;98173.19;4543696;26;20651;-81
2022/05/04 08:21:26;;;;;;;6.32;3.00;;;;;;;29.99;25.70;98168.78;4449203;32;20078;-81
2022/05/04 08:23:53;;;;;;;5.78;2.80;;;;;;;30.76;25.88;98166.44;4443301;32;20102;-81
2022/05/04 08:26:22;;;;;;;6.10;2.80;;;;;;;31.28;25.70;98174.09;4455792;32;20061;-81
2022/05/04 08:28:51;;;;;;;10.07;3.20;;;;;;;30.70;26.54;98173.34;4605748;26;20129;-81
2022/05/04 08:31:21;;;;;;;7.53;2.95;;;;;;;29.66;26.33;98172.69;4522175;26;20066;-80
2022/05/04 08:33:49;;;;;;;7.55;2.97;;;;;;;29.40;27.48;98172.28;4454954;32;20058;-81
2022/05/04 08:36:18;;;;;;;6.78;2.92;;;;;;;29.42;28.22;98172.09;4440857;32;20093;-81
2022/05/04 08:38:45;;;;;;;6.40;3.15;;;;;;;28.32;28.49;98167.16;4455021;32;20077;-81
2022/05/04 08:41:12;;;;;;;8.02;2.90;;;;;;;28.60;27.63;98171.94;4452925;27;20129;-80
2022/05/04 08:46:15;;;;;;;9.52;3.50;;;;;;;27.50;31.51;98179.03;4565814;26;20233;-80
2022/05/04 08:48:43;;;;;;;7.10;3.40;;;;;;;26.08;32.85;98144.84;4426822;32;20096;-80
2022/05/04 08:51:11;;;;;;;5.72;2.60;;;;;;;26.17;32.35;98141.25;4436899;32;20066;-82
2022/05/04 08:56:14;;;;;;;5.70;2.97;;;;;;;26.52;32.34;98145.47;4430819;26;20080;-81
2022/05/04 08:58:41;;;;;;;7.82;2.95;;;;;;;26.93;31.66;98142.00;4455501;32;20069;-81
2022/05/04 09:01:09;;;;;;;6.65;3.00;;;;;;;27.62;31.15;98144.03;4456065;32;20074;-82
2022/05/04 09:03:38;;;;;;;7.78;2.75;;;;;;;28.43;30.01;98171.22;4486930;26;20077;-82
2022/05/04 09:06:06;;;;;;;5.85;2.78;;;;;;;27.86;27.56;98140.50;4478893;26;20133;-82
2022/05/04 09:08:57;;;;;;;6.50;2.90;;;;;;;28.56;28.13;98171.47;4430704;32;20183;-82
2022/05/04 09:11:24;;;;;;;7.47;3.47;;;;;;;28.06;29.66;98164.75;4423610;32;20134;-81
2022/05/04 09:13:52;;;;;;;8.48;2.78;;;;;;;28.15;31.03;98171.66;4513450;26;20073;-82
2022/05/04 09:16:47;;;;;;;8.13;2.90;;;;;;;28.28;28.44;98168.47;4454244;32;20093;-81
2022/05/04 09:19:17;;;;;;;7.85;3.22;;;;;;;28.12;28.57;98160.59;4441185;32;20086;-83
2022/05/04 09:21:48;;;;;;;8.10;2.92;;;;;;;29.47;28.72;98167.91;4427726;32;20173;-84
2022/05/04 09:24:25;;;;;;;6.62;3.30;;;;;;;29.58;29.63;98169.31;4441672;32;20140;-84
2022/05/04 09:26:57;;;;;;;8.50;3.30;;;;;;;29.15;29.85;98168.22;4428791;32;20184;-84
2022/05/04 09:29:35;;;;;;;7.80;3.10;;;;;;;28.35;30.94;98158.84;4442889;32;20141;-84
2022/05/04 09:32:14;;;;;;;6.28;2.87;;;;;;;27.84;30.59;98155.75;4443246;32;20104;-83
2022/05/04 09:34:49;;;;;;;9.20;3.55;;;;;;;27.81;31.33;98149.97;4442040;32;20215;-83
2022/05/04 09:45:36;;;;;;;6.62;3.00;;;;;;;28.83;29.69;98148.87;4441033;32;20183;-84
2022/05/04 09:48:04;;;;;;;8.32;3.20;;;;;;;29.39;28.73;98160.00;4441913;32;20103;-83
2022/05/04 09:50:39;;;;;;;5.45;2.80;;;;;;;29.44;27.73;98154.13;4442813;32;20093;-83
2022/05/04 09:53:06;;;;;;;6.28;2.80;;;;;;;29.38;28.18;98145.06;4441536;32;20132;-83
2022/05/04 09:55:34;;;;;;;9.02;3.12;;;;;;;28.91;28.76;98151.47;4427324;32;20120;-84
2022/05/04 09:58:02;;;;;;;6.40;2.80;;;;;;;29.38;26.96;98147.72;4439786;32;20133;-84
2022/05/04 10:00:30;;;;;;;5.62;2.50;;;;;;;29.72;26.51;98135.75;4427597;32;20156;-84
2022/05/04 10:02:57;;;;;;;6.37;2.83;;;;;;;29.55;26.35;98148.37;4441741;32;20089;-83
2022/05/04 10:05:24;;;;;;;7.53;3.08;;;;;;;29.25;25.36;98142.22;4442157;32;20066;-83
2022/05/04 10:07:52;;;;;;;6.37;2.95;;;;;;;29.71;25.97;98136.75;4443234;32;20104;-83
2022/05/04 10:10:25;;;;;;;5.53;2.80;;;;;;;29.95;26.38;98137.25;4446466;32;20061;-83
2022/05/04 10:12:51;;;;;;;5.72;2.87;;;;;;;28.91;26.64;98142.69;4447574;32;20115;-83
2022/05/04 10:15:19;;;;;;;5.50;2.90;;;;;;;27.31;28.57;98145.78;4445090;32;20062;-83
2022/05/04 10:18:04;;;;;;;6.57;3.17;;;;;;;26.75;28.88;98135.03;4444429;32;20077;-83
2022/05/04 10:20:37;;;;;;;6.22;3.00;;;;;;;27.38;29.37;98130.84;4428123;32;20139;-83
2022/05/04 10:23:26;;;;;;;5.60;2.90;;;;;;;28.46;27.50;98131.06;4441853;32;20068;-83
2022/05/04 10:25:57;;;;;;;7.05;3.12;;;;;;;28.00;29.15;98120.38;4427738;32;20124;-81
2022/05/04 10:28:24;;;;;;;6.57;3.12;;;;;;;28.59;27.79;98131.28;4429039;32;20164;-81
2022/05/04 10:30:51;;;;;;;6.28;3.00;;;;;;;28.28;27.24;98126.03;4444696;32;20146;-82
2022/05/04 10:33:25;;;;;;;7.70;3.22;;;;;;;26.71;29.53;98131.09;4443951;32;20106;-81
2022/05/04 10:35:52;;;;;;;6.57;2.70;;;;;;;25.53;29.48;98136.50;4429648;32;20108;-82
2022/05/04 10:38:28;;;;;;;5.20;2.70;;;;;;;27.16;26.90;98135.06;4428639;32;20439;-81
2022/05/04 10:40:56;;;;;;;6.57;2.58;;;;;;;27.37;27.08;98140.63;4442426;32;20152;-82
2022/05/04 10:43:38;;;;;;;5.43;2.50;;;;;;;26.20;31.66;98148.03;4443487;32;20098;-82
2022/05/04 10:46:12;;;;;;;6.55;3.00;;;;;;;22.92;37.90;98148.69;4430086;32;20109;-82
2022/05/04 10:48:52;;;;;;;7.97;3.35;;;;;;;22.48;39.31;98148.25;4444220;32;20070;-82
2022/05/04 10:51:27;;;;;;;7.65;3.40;;;;;;;21.87;43.05;98143.97;4443179;32;20105;-81
2022/05/04 10:54:13;;;;;;;6.55;2.92;;;;;;;20.46;49.74;98135.84;4443977;32;20146;-80
2022/05/04 10:56:43;;;;;;;8.05;2.85;;;;;;;19.43;50.12;98130.00;4444238;32;20490;-81
2022/05/04 10:59:12;;;;;;;8.02;3.12;;;;;;;20.33;50.28;98129.91;4429474;32;20152;-81
2022/05/04 11:01:40;;;;;;;7.75;3.22;;;;;;;20.07;51.53;98130.19;4444038;32;20070;-81
2022/05/04 11:04:16;;;;;;;7.55;2.75;;;;;;;19.61;51.89;98118.13;4431804;32;20391;-80
2022/05/04 11:06:58;;;;;;;7.68;3.00;;;;;;;19.58;48.64;98130.62;4445926;32;20152;-81
2022/05/04 11:09:31;;;;;;;6.30;2.80;;;;;;;19.17;51.30;98123.34;4444245;32;20081;-81
2022/05/04 11:12:00;;;;;;;8.23;3.30;;;;;;;19.13;53.41;98122.72;4445652;32;20061;-81
2022/05/04 11:14:28;;;;;;;12.50;3.40;;;;;;;19.52;51.18;98120.59;4444719;32;20177;-81
2022/05/04 11:16:57;;;;;;;5.47;2.35;;;;;;;19.60;53.44;98119.09;4445378;32;20107;-82
2022/05/04 11:19:26;;;;;;;7.47;3.08;;;;;;;19.50;54.13;98120.72;4445349;32;20082;-81
2022/05/04 11:21:53;;;;;;;8.20;3.12;;;;;;;19.82;52.40;98133.09;4444558;32;20105;-82
2022/05/04 11:24:20;;;;;;;7.07;3.17;;;;;;;20.21;51.57;98123.88;4443985;32;20135;-82
2022/05/04 11:26:50;;;;;;;8.07;3.00;;;;;;;20.83;49.61;98128.38;4444192;32;20140;-82
2022/05/04 11:29:19;;;;;;;5.78;2.85;;;;;;;21.20;49.13;98118.25;4427511;32;20171;-83
2022/05/04 11:31:57;;;;;;;4.22;1.90;;;;;;;22.04;44.21;98124.13;4441354;32;20146;-82
2022/05/04 11:34:26;;;;;;;5.40;2.72;;;;;;;22.48;44.06;98127.22;4442962;32;20120;-82
2022/05/04 11:36:55;;;;;;;6.35;2.85;;;;;;;22.06;44.48;98124.84;4441916;32;20109;-83
2022/05/04 11:39:25;;;;;;;6.00;2.37;;;;;;;22.69;40.71;98134.97;4442334;32;20054;-81
2022/05/04 11:41:54;;;;;;;8.07;3.08;;;;;;;22.42;41.23;98131.22;4444512;32;20123;-82
2022/05/04 11:44:25;;;;;;;5.97;2.40;;;;;;;22.31;41.02;98141.03;4432345;32;20122;-81
2022/05/04 11:46:53;;;;;;;5.15;2.33;;;;;;;22.08;40.47;98135.22;4431341;32;20160;-82
2022/05/04 11:49:23;;;;;;;6.12;3.08;;;;;;;22.46;39.59;98139.69;4443863;32;20085;-82
2022/05/04 11:51:50;;;;;;;7.75;2.67;;;;;;;22.45;39.53;98136.22;4441423;32;20090;-78
2022/05/04 11:54:18;;;;;;;5.25;2.50;;;;;;;22.17;39.99;98142.28;4439748;32;20093;-78
2022/05/04 11:56:45;;;;;;;6.20;2.58;;;;;;;22.10;39.94;98138.53;4439499;32;20152;-78
2022/05/04 11:59:12;;;;;;;4.97;2.33;;;;;;;21.74;40.02;98137.31;4439410;32;20129;-78
2022/05/04 12:01:40;;;;;;;6.35;3.08;;;;;;;20.62;44.04;98136.22;4425918;32;20146;-79
2022/05/04 12:04:10;;;;;;;7.07;2.53;;;;;;;22.17;43.71;98137.84;4439530;32;20101;-79
2022/05/04 12:06:37;;;;;;;5.87;3.08;;;;;;;23.23;35.95;98129.09;4439557;32;20146;-78
2022/05/04 12:09:05;;;;;;;6.50;3.00;;;;;;;24.40;39.45;98139.94;4425729;32;20412;-78
2022/05/04 12:11:32;;;;;;;6.20;2.53;;;;;;;23.47;42.26;98131.22;4439254;32;20504;-79
2022/05/04 12:13:59;;;;;;;7.12;2.97;;;;;;;22.28;37.72;98117.66;4439153;32;20199;-78
2022/05/04 12:16:28;;;;;;;7.37;2.55;;;;;;;22.63;38.21;98128.47;4439285;32;20108;-78
2022/05/04 12:18:55;;;;;;;6.60;3.47;;;;;;;23.40;35.97;98116.16;4439229;32;20424;-79
2022/05/04 12:21:22;;;;;;;6.70;2.40;;;;;;;24.15;35.84;98112.47;4426601;32;20165;-79
2022/05/04 12:23:54;;;;;;;7.62;2.50;;;;;;;25.44;35.10;98114.50;4441704;32;20146;-79
2022/05/04 12:26:22;;;;;;;7.35;2.85;;;;;;;23.43;39.71;98106.16;4441109;32;20108;-79
2022/05/04 12:34:25;;;;;;;5.20;2.62;;;;;;;20.78;52.17;98092.06;4441233;32;20097;-79
2022/05/04 12:36:55;;;;;;;7.22;2.60;;;;;;;21.46;53.37;98097.66;4441415;32;20093;-79
2022/05/04 12:39:22;;;;;;;5.20;2.50;;;;;;;21.65;49.01;98078.53;4441326;32;20136;-80